CheckWX is a tool to help pilots better visualize weather data.  It is not intended as a substitute for an official pre-flight weather briefing.

18:38:22 UTC

KJCA METAR
Jackson County Airport
Jefferson, Georgia, USA
Current

23 mins ago

KJCA 261815Z AUTO 09013KT 10SM SCT032 BKN046 OVC070 16/08 A3011 RMK AO2 T01560085
Observed
Mar-26 @ 18:15 UTC
Wind
  • 090° at 13 KTS
Visibility
10 SM
Flight Rules
VFR
Cloud Levels
  • Scattered at 3,200' AGL
  • Broken at 4,600' AGL
  • Overcast at 7,000' AGL
Temperature
16°C / 61°F
Dewpoint
C / 48°F
Humidity
63%
Altimeter
30.11" Hg
Pressure
1019.62 hPa
Previous

43 mins ago

KJCA 261755Z AUTO 05010KT 10SM BKN032 OVC037 15/09 A3011 RMK AO2 T01550090 10165 20091
Observed
Mar-26 @ 17:55 UTC
Wind
  • 050° at 10 KTS
Visibility
10 SM
Flight Rules
VFR
Cloud Levels
  • Broken at 3,200' AGL
  • Overcast at 3,700' AGL
Temperature
16°C / 61°F
Dewpoint
C / 48°F
Humidity
63%
Altimeter
30.11" Hg
Pressure
1019.62 hPa
Previous

1 hour ago

KJCA 261735Z AUTO 05012G16KT 10SM BKN032 OVC045 16/09 A3011 RMK AO2 T01560090
Observed
Mar-26 @ 17:35 UTC
Wind
  • 050° at 12 KTS
  • Gusting to 16 KTS
Visibility
10 SM
Flight Rules
VFR
Cloud Levels
  • Broken at 3,200' AGL
  • Overcast at 4,500' AGL
Temperature
16°C / 61°F
Dewpoint
C / 48°F
Humidity
63%
Altimeter
30.11" Hg
Pressure
1019.62 hPa